createdAt,value
2023-08-22T00:01:04.000Z,0
2023-08-22T00:02:20.000Z,0
2023-08-22T00:03:36.000Z,0
2023-08-22T00:04:52.000Z,0
2023-08-22T00:06:08.000Z,0
2023-08-22T00:07:24.000Z,0
2023-08-22T00:08:40.000Z,0
2023-08-22T00:09:57.000Z,0
2023-08-22T00:11:13.000Z,0
2023-08-22T00:12:29.000Z,0
2023-08-22T00:13:45.520Z,0
2023-08-22T00:15:01.000Z,0
2023-08-22T00:16:17.000Z,0
2023-08-22T00:17:34.000Z,0
2023-08-22T00:18:50.000Z,0
2023-08-22T00:20:05.000Z,0
2023-08-22T00:21:21.000Z,0
2023-08-22T00:22:37.000Z,0
2023-08-22T00:23:54.000Z,0
2023-08-22T00:25:10.000Z,0
2023-08-22T00:26:26.000Z,0
2023-08-22T00:27:42.000Z,0
2023-08-22T00:28:58.000Z,0
2023-08-22T00:30:15.000Z,0
2023-08-22T00:31:31.000Z,0
2023-08-22T00:32:47.000Z,0
2023-08-22T00:34:03.000Z,0
2023-08-22T00:35:19.000Z,0
2023-08-22T00:36:35.000Z,0
2023-08-22T00:37:51.000Z,0
2023-08-22T00:39:07.000Z,0
2023-08-22T00:40:23.000Z,0
2023-08-22T00:41:39.798Z,0
2023-08-22T00:42:56.000Z,0
2023-08-22T00:44:12.000Z,0
2023-08-22T00:45:28.000Z,0
2023-08-22T00:46:44.000Z,0
2023-08-22T00:48:00.000Z,0
2023-08-22T00:49:17.000Z,0
2023-08-22T00:50:33.000Z,0
2023-08-22T00:51:49.361Z,0
2023-08-22T00:53:04.000Z,0
2023-08-22T00:54:20.000Z,0
2023-08-22T00:55:37.000Z,0
2023-08-22T00:56:53.000Z,0
2023-08-22T00:58:09.000Z,0
2023-08-22T00:59:25.000Z,0
2023-08-22T01:00:41.000Z,0
2023-08-22T01:01:57.000Z,0
2023-08-22T01:03:14.000Z,0
2023-08-22T01:04:30.000Z,0
2023-08-22T01:05:46.000Z,0
2023-08-22T01:07:02.000Z,0
2023-08-22T01:08:18.000Z,0
2023-08-22T01:09:34.000Z,0
2023-08-22T01:10:50.000Z,0
2023-08-22T01:12:06.000Z,0
2023-08-22T01:13:22.000Z,0
2023-08-22T01:14:38.000Z,0
2023-08-22T01:15:55.000Z,0
2023-08-22T01:17:11.000Z,0
2023-08-22T01:18:27.435Z,0
2023-08-22T01:19:43.000Z,0
2023-08-22T01:20:59.000Z,0
2023-08-22T01:22:16.000Z,0
2023-08-22T01:23:32.000Z,0
2023-08-22T01:24:48.000Z,0
2023-08-22T01:26:03.000Z,0
2023-08-22T01:27:19.000Z,0
2023-08-22T01:28:36.000Z,0
2023-08-22T01:29:52.000Z,0
2023-08-22T01:31:08.000Z,0
2023-08-22T01:32:24.000Z,0
2023-08-22T01:33:40.000Z,0
2023-08-22T01:34:57.000Z,0
2023-08-22T01:36:13.000Z,0
2023-08-22T01:37:29.000Z,0
2023-08-22T01:38:45.000Z,0
2023-08-22T01:40:01.000Z,0
2023-08-22T01:41:18.000Z,0
2023-08-22T01:42:33.000Z,0
2023-08-22T01:43:49.000Z,0
2023-08-22T01:45:05.000Z,0
2023-08-22T01:46:21.000Z,0
2023-08-22T01:47:37.000Z,0
2023-08-22T01:48:54.000Z,0
2023-08-22T01:50:10.000Z,0
2023-08-22T01:51:26.000Z,0
2023-08-22T01:52:42.000Z,0
2023-08-22T01:53:58.000Z,0
2023-08-22T01:55:15.000Z,0
2023-08-22T01:56:31.000Z,0
2023-08-22T01:57:47.000Z,0
2023-08-22T01:59:02.000Z,0
2023-08-22T02:00:18.000Z,0
2023-08-22T02:01:35.000Z,0
2023-08-22T02:02:51.000Z,0
2023-08-22T02:04:07.000Z,0
2023-08-22T02:05:23.000Z,0
2023-08-22T02:06:39.000Z,0
2023-08-22T02:07:56.033Z,0
2023-08-22T02:09:12.000Z,0
2023-08-22T02:10:28.000Z,0
2023-08-22T02:11:44.000Z,0
2023-08-22T02:13:00.000Z,0
2023-08-22T02:14:17.000Z,0
2023-08-22T02:15:32.000Z,0
2023-08-22T02:16:48.000Z,0
2023-08-22T02:18:04.000Z,0
2023-08-22T02:19:20.000Z,0
2023-08-22T02:20:37.000Z,0
2023-08-22T02:21:53.000Z,0
2023-08-22T02:23:09.000Z,0
2023-08-22T02:24:25.000Z,0
2023-08-22T02:25:41.000Z,0
2023-08-22T02:26:58.000Z,0
2023-08-22T02:28:14.000Z,0
2023-08-22T02:29:30.000Z,0
2023-08-22T02:30:46.000Z,0
2023-08-22T02:32:01.000Z,0
2023-08-22T02:33:18.000Z,0
2023-08-22T02:34:34.000Z,0
2023-08-22T02:35:50.000Z,0
2023-08-22T02:37:06.000Z,0
2023-08-22T02:38:22.000Z,0
2023-08-22T02:39:38.000Z,0
2023-08-22T02:40:55.000Z,0
2023-08-22T02:42:11.000Z,0
2023-08-22T02:43:27.000Z,0
2023-08-22T02:44:43.000Z,0
2023-08-22T02:45:59.868Z,0
2023-08-22T02:47:16.000Z,0
2023-08-22T02:48:31.000Z,0
2023-08-22T02:49:47.000Z,0
2023-08-22T02:51:03.000Z,0
2023-08-22T02:52:19.000Z,0
2023-08-22T02:53:36.000Z,0
2023-08-22T02:54:52.000Z,0
2023-08-22T02:56:08.000Z,0
2023-08-22T02:57:24.000Z,0
2023-08-22T02:58:40.000Z,0
2023-08-22T02:59:57.000Z,0
2023-08-22T03:01:13.000Z,0
2023-08-22T03:02:29.000Z,0
2023-08-22T03:03:45.000Z,0
2023-08-22T03:05:00.000Z,0
2023-08-22T03:06:17.000Z,0
2023-08-22T03:07:33.000Z,0
2023-08-22T03:08:49.369Z,0
2023-08-22T03:10:05.000Z,0
2023-08-22T03:11:21.000Z,0
2023-08-22T03:12:37.000Z,0
2023-08-22T03:13:53.000Z,0
2023-08-22T03:15:09.000Z,0
2023-08-22T03:16:25.000Z,0
2023-08-22T03:17:41.000Z,0
2023-08-22T03:18:58.000Z,0
2023-08-22T03:20:14.000Z,0
2023-08-22T03:21:30.000Z,0
2023-08-22T03:22:46.000Z,0
2023-08-22T03:24:02.711Z,0
2023-08-22T03:25:18.000Z,0
2023-08-22T03:26:35.000Z,0
2023-08-22T03:27:51.000Z,0
2023-08-22T03:29:06.000Z,0
2023-08-22T03:30:22.000Z,0
2023-08-22T03:31:38.000Z,0
2023-08-22T03:32:55.000Z,0
2023-08-22T03:34:11.000Z,0
2023-08-22T03:35:27.000Z,0
2023-08-22T03:36:43.000Z,0
2023-08-22T03:37:59.000Z,0
2023-08-22T03:39:16.000Z,0
2023-08-22T03:40:32.000Z,0
2023-08-22T03:41:48.000Z,0
2023-08-22T03:43:04.000Z,0
2023-08-22T03:44:20.000Z,0
2023-08-22T03:45:36.000Z,0
2023-08-22T03:46:52.000Z,0
2023-08-22T03:48:08.000Z,0
2023-08-22T03:49:24.000Z,0
2023-08-22T03:50:40.000Z,0
2023-08-22T03:51:57.000Z,0
2023-08-22T03:53:13.000Z,0
2023-08-22T03:54:29.000Z,0
2023-08-22T03:55:45.000Z,0
2023-08-22T03:57:01.000Z,0
2023-08-22T03:58:18.000Z,0
2023-08-22T03:59:34.000Z,0
2023-08-22T04:00:50.000Z,0
2023-08-22T04:02:05.592Z,0
2023-08-22T04:03:21.000Z,0
2023-08-22T04:04:38.000Z,0
2023-08-22T04:05:54.000Z,0
2023-08-22T04:07:10.000Z,0
2023-08-22T04:08:26.000Z,0
2023-08-22T04:09:42.000Z,0
2023-08-22T04:10:59.000Z,0
2023-08-22T04:12:15.000Z,0
2023-08-22T04:13:31.000Z,0
2023-08-22T04:14:47.000Z,0
2023-08-22T04:16:03.000Z,0
2023-08-22T04:17:20.000Z,0
2023-08-22T04:18:35.000Z,0
2023-08-22T04:19:51.000Z,0
2023-08-22T04:21:07.000Z,0
2023-08-22T04:22:23.000Z,0
2023-08-22T04:23:40.000Z,0
2023-08-22T04:24:56.000Z,0
2023-08-22T04:26:12.000Z,0
2023-08-22T04:27:28.000Z,0
2023-08-22T04:28:44.000Z,0
2023-08-22T04:30:00.000Z,0
2023-08-22T04:31:17.000Z,0
2023-08-22T04:32:33.000Z,0
2023-08-22T04:33:49.000Z,0
2023-08-22T04:35:04.000Z,5
2023-08-22T04:36:20.000Z,5
2023-08-22T04:37:37.000Z,5
2023-08-22T04:38:53.000Z,5
2023-08-22T04:40:09.000Z,5
2023-08-22T04:41:25.000Z,5
2023-08-22T04:42:41.000Z,5
2023-08-22T04:43:58.000Z,5
2023-08-22T04:45:14.000Z,11
2023-08-22T04:46:30.000Z,11
2023-08-22T04:47:46.000Z,11
2023-08-22T04:49:02.000Z,16
2023-08-22T04:50:19.000Z,16
2023-08-22T04:51:34.000Z,16
2023-08-22T04:52:50.000Z,16
2023-08-22T04:54:06.000Z,22
2023-08-22T04:55:22.000Z,22
2023-08-22T04:56:39.000Z,22
2023-08-22T04:57:55.000Z,22
2023-08-22T04:59:11.000Z,22
2023-08-22T05:00:27.000Z,22
2023-08-22T05:01:43.798Z,28
2023-08-22T05:03:00.000Z,28
2023-08-22T05:04:16.000Z,33
2023-08-22T05:05:32.000Z,33
2023-08-22T05:06:48.000Z,39
2023-08-22T05:08:03.000Z,45
2023-08-22T05:09:19.996Z,56
2023-08-22T05:10:36.000Z,61
2023-08-22T05:11:52.000Z,61
2023-08-22T05:13:08.000Z,61
2023-08-22T05:14:24.000Z,67
2023-08-22T05:15:41.000Z,67
2023-08-22T05:16:57.000Z,73
2023-08-22T05:18:13.000Z,84
2023-08-22T05:19:29.000Z,95
2023-08-22T05:20:45.000Z,106
2023-08-22T05:22:02.000Z,123
2023-08-22T05:23:18.000Z,135
2023-08-22T05:24:33.000Z,140
2023-08-22T05:25:49.000Z,146
2023-08-22T05:27:05.000Z,157
2023-08-22T05:28:22.000Z,168
2023-08-22T05:29:38.000Z,180
2023-08-22T05:30:54.000Z,168
2023-08-22T05:32:10.512Z,191
2023-08-22T05:33:26.000Z,253
2023-08-22T05:34:43.000Z,354
2023-08-22T05:35:59.000Z,1226
2023-08-22T05:37:15.000Z,1046
2023-08-22T05:38:31.000Z,596
2023-08-22T05:39:47.000Z,1918
2023-08-22T05:41:02.000Z,2193
2023-08-22T05:42:19.000Z,2418
2023-08-22T05:43:35.000Z,2503
2023-08-22T05:44:51.489Z,2446
2023-08-22T05:46:07.000Z,2435
2023-08-22T05:47:23.000Z,2317
2023-08-22T05:48:40.000Z,2041
2023-08-22T05:49:56.000Z,2227
2023-08-22T05:51:12.000Z,2542
2023-08-22T05:52:28.000Z,2615
2023-08-22T05:53:44.000Z,2795
2023-08-22T05:55:01.000Z,2919
2023-08-22T05:56:17.000Z,2891
2023-08-22T05:57:32.000Z,2835
2023-08-22T05:58:48.000Z,2767
2023-08-22T06:00:04.000Z,2632
2023-08-22T06:01:21.000Z,2773
2023-08-22T06:02:37.000Z,3155
2023-08-22T06:03:53.000Z,3116
2023-08-22T06:05:09.000Z,3020
2023-08-22T06:06:25.000Z,3189
2023-08-22T06:07:42.000Z,3144
2023-08-22T06:08:58.234Z,3110
2023-08-22T06:10:14.431Z,2424
2023-08-22T06:11:30.000Z,3234
2023-08-22T06:12:46.000Z,3369
2023-08-22T06:14:02.000Z,3465
2023-08-22T06:15:18.000Z,3459
2023-08-22T06:16:34.000Z,3420
2023-08-22T06:17:50.000Z,3386
2023-08-22T06:19:06.000Z,3459
2023-08-22T06:20:23.000Z,3571
2023-08-22T06:21:39.000Z,3515
2023-08-22T06:22:55.000Z,3487
2023-08-22T06:24:11.000Z,3639
2023-08-22T06:25:27.000Z,3645
2023-08-22T06:26:44.000Z,3757
2023-08-22T06:28:00.000Z,3701
2023-08-22T06:29:16.000Z,3695
2023-08-22T06:30:31.000Z,3751
2023-08-22T06:31:47.000Z,3875
2023-08-22T06:33:04.000Z,2272
2023-08-22T06:34:20.000Z,2761
2023-08-22T06:35:36.000Z,3791
2023-08-22T06:36:52.000Z,4134
2023-08-22T06:38:08.000Z,4055
2023-08-22T06:39:25.000Z,2131
2023-08-22T06:40:41.000Z,2210
2023-08-22T06:41:57.000Z,1946
2023-08-22T06:43:13.615Z,3223
2023-08-22T06:44:29.000Z,4370
2023-08-22T06:45:46.000Z,3391
2023-08-22T06:47:01.213Z,2002
2023-08-22T06:48:17.000Z,1271
2023-08-22T06:49:33.000Z,2216
2023-08-22T06:50:49.000Z,1918
2023-08-22T06:52:06.000Z,2626
2023-08-22T06:53:22.000Z,4263
2023-08-22T06:54:38.000Z,3510
2023-08-22T06:55:54.000Z,4179
2023-08-22T06:57:10.000Z,4483
2023-08-22T06:58:27.000Z,4438
2023-08-22T06:59:43.000Z,4291
2023-08-22T07:00:59.000Z,4072
2023-08-22T07:02:15.000Z,4269
2023-08-22T07:03:30.000Z,4567
2023-08-22T07:04:47.000Z,4078
2023-08-22T07:06:03.000Z,3768
2023-08-22T07:07:19.000Z,4190
2023-08-22T07:08:35.000Z,4590
2023-08-22T07:09:51.000Z,4623
2023-08-22T07:11:08.000Z,4556
2023-08-22T07:12:24.000Z,4545
2023-08-22T07:13:40.000Z,4438
2023-08-22T07:14:56.000Z,4550
2023-08-22T07:16:12.000Z,3594
2023-08-22T07:17:29.000Z,1597
2023-08-22T07:18:45.000Z,1102
2023-08-22T07:20:00.000Z,995
2023-08-22T07:21:16.000Z,804
2023-08-22T07:22:32.000Z,703
2023-08-22T07:23:49.000Z,686
2023-08-22T07:25:05.200Z,804
2023-08-22T07:26:21.000Z,826
2023-08-22T07:27:36.000Z,748
2023-08-22T07:28:52.000Z,714
2023-08-22T07:30:09.000Z,686
2023-08-22T07:31:25.000Z,742
2023-08-22T07:32:41.000Z,736
2023-08-22T07:33:57.000Z,753
2023-08-22T07:35:13.000Z,635
2023-08-22T07:36:30.000Z,596
2023-08-22T07:37:46.000Z,551
2023-08-22T07:39:02.000Z,551
2023-08-22T07:40:18.000Z,618
2023-08-22T07:41:34.000Z,860
2023-08-22T07:42:51.000Z,961
2023-08-22T07:44:06.000Z,1755
2023-08-22T07:45:22.000Z,1040
2023-08-22T07:46:38.000Z,950
2023-08-22T07:47:54.000Z,1057
2023-08-22T07:49:11.000Z,1777
2023-08-22T07:50:27.000Z,815
2023-08-22T07:51:43.000Z,697
2023-08-22T07:52:59.000Z,585
2023-08-22T07:54:15.000Z,506
2023-08-22T07:55:32.000Z,455
2023-08-22T07:56:48.000Z,438
2023-08-22T07:58:04.000Z,427
2023-08-22T07:59:20.540Z,433
2023-08-22T08:00:35.000Z,444
2023-08-22T08:01:51.945Z,455
2023-08-22T08:03:08.157Z,472
2023-08-22T08:04:24.000Z,483
2023-08-22T08:05:40.545Z,483
2023-08-22T08:06:56.000Z,495
2023-08-22T08:08:13.000Z,517
2023-08-22T08:09:29.000Z,545
2023-08-22T08:10:45.000Z,551
2023-08-22T08:12:01.000Z,556
2023-08-22T08:13:17.000Z,573
2023-08-22T08:14:34.000Z,585
2023-08-22T08:15:50.000Z,635
2023-08-22T08:17:05.000Z,669
2023-08-22T08:18:21.000Z,725
2023-08-22T08:19:37.000Z,781
2023-08-22T08:20:53.000Z,759
2023-08-22T08:22:10.000Z,736
2023-08-22T08:23:26.000Z,736
2023-08-22T08:24:42.000Z,826
2023-08-22T08:25:58.000Z,826
2023-08-22T08:27:14.000Z,1153
2023-08-22T08:28:31.000Z,1366
2023-08-22T08:29:47.273Z,1215
2023-08-22T08:31:03.000Z,1968
2023-08-22T08:32:19.000Z,1552
2023-08-22T08:33:34.000Z,1051
2023-08-22T08:34:51.000Z,821
2023-08-22T08:36:07.000Z,821
2023-08-22T08:37:23.000Z,905
2023-08-22T08:38:39.000Z,1023
2023-08-22T08:39:55.000Z,905
2023-08-22T08:41:12.000Z,753
2023-08-22T08:42:28.000Z,720
2023-08-22T08:43:44.000Z,736
2023-08-22T08:45:00.000Z,753
2023-08-22T08:46:16.000Z,871
2023-08-22T08:47:33.000Z,832
2023-08-22T08:48:49.000Z,922
2023-08-22T08:50:04.440Z,1546
2023-08-22T08:51:20.000Z,939
2023-08-22T08:52:36.000Z,945
2023-08-22T08:53:53.000Z,916
2023-08-22T08:55:09.000Z,877
2023-08-22T08:56:25.000Z,871
2023-08-22T08:57:41.000Z,956
2023-08-22T08:58:57.000Z,967
2023-08-22T09:00:14.000Z,1001
2023-08-22T09:01:30.210Z,1091
2023-08-22T09:02:46.000Z,1153
2023-08-22T09:04:02.000Z,900
2023-08-22T09:05:18.000Z,860
2023-08-22T09:06:34.000Z,810
2023-08-22T09:07:50.000Z,810
2023-08-22T09:09:06.000Z,843
2023-08-22T09:10:22.000Z,888
2023-08-22T09:11:38.000Z,866
2023-08-22T09:12:55.000Z,815
2023-08-22T09:14:11.000Z,765
2023-08-22T09:15:27.000Z,810
2023-08-22T09:16:43.000Z,731
2023-08-22T09:17:59.000Z,781
2023-08-22T09:19:16.000Z,815
2023-08-22T09:20:32.000Z,781
2023-08-22T09:21:48.000Z,753
2023-08-22T09:23:03.000Z,742
2023-08-22T09:24:19.000Z,725
2023-08-22T09:25:36.000Z,697
2023-08-22T09:26:52.000Z,748
2023-08-22T09:28:08.000Z,663
2023-08-22T09:29:24.000Z,663
2023-08-22T09:30:40.000Z,630
2023-08-22T09:31:56.952Z,635
2023-08-22T09:33:13.000Z,686
2023-08-22T09:34:29.000Z,669
2023-08-22T09:35:45.000Z,618
2023-08-22T09:37:01.000Z,579
2023-08-22T09:38:18.000Z,556
2023-08-22T09:39:33.000Z,540
2023-08-22T09:40:49.000Z,528
2023-08-22T09:42:05.000Z,523
2023-08-22T09:43:21.000Z,517
2023-08-22T09:44:38.000Z,517
2023-08-22T09:45:54.000Z,534
2023-08-22T09:47:10.000Z,540
2023-08-22T09:48:26.000Z,540
2023-08-22T09:49:42.000Z,545
2023-08-22T09:50:59.000Z,545
2023-08-22T09:52:15.000Z,556
2023-08-22T09:53:31.000Z,568
2023-08-22T09:54:47.000Z,590
2023-08-22T09:56:02.714Z,590
2023-08-22T09:57:19.000Z,573
2023-08-22T09:58:35.000Z,568
2023-08-22T09:59:51.000Z,573
2023-08-22T10:01:07.000Z,568
2023-08-22T10:02:23.000Z,573
2023-08-22T10:03:39.000Z,562
2023-08-22T10:04:56.000Z,562
2023-08-22T10:06:12.000Z,556
2023-08-22T10:07:28.000Z,540
2023-08-22T10:08:44.000Z,534
2023-08-22T10:10:00.868Z,528
2023-08-22T10:11:17.000Z,528
2023-08-22T10:12:32.000Z,534
2023-08-22T10:13:48.000Z,534
2023-08-22T10:15:04.000Z,540
2023-08-22T10:16:20.000Z,551
2023-08-22T10:17:37.000Z,562
2023-08-22T10:18:53.000Z,551
2023-08-22T10:20:09.000Z,540
2023-08-22T10:21:25.000Z,528
2023-08-22T10:22:41.000Z,528
2023-08-22T10:23:58.000Z,523
2023-08-22T10:25:14.000Z,528
2023-08-22T10:26:30.000Z,528
2023-08-22T10:27:46.000Z,517
2023-08-22T10:29:01.000Z,511
2023-08-22T10:30:18.000Z,517
2023-08-22T10:31:34.000Z,523
2023-08-22T10:32:50.000Z,534
2023-08-22T10:34:06.000Z,556
2023-08-22T10:35:22.000Z,585
2023-08-22T10:36:39.000Z,601
2023-08-22T10:37:55.000Z,590
2023-08-22T10:39:11.000Z,601
2023-08-22T10:40:27.000Z,585
2023-08-22T10:41:43.000Z,585
2023-08-22T10:43:00.000Z,624
2023-08-22T10:44:16.000Z,618
2023-08-22T10:45:31.000Z,596
2023-08-22T10:46:47.000Z,618
2023-08-22T10:48:03.866Z,613
2023-08-22T10:49:20.000Z,573
2023-08-22T10:50:36.000Z,556
2023-08-22T10:51:52.000Z,534
2023-08-22T10:53:08.000Z,562
2023-08-22T10:54:24.000Z,562
2023-08-22T10:55:41.000Z,495
2023-08-22T10:56:57.000Z,534
2023-08-22T10:58:13.000Z,556
2023-08-22T10:59:29.000Z,540
2023-08-22T11:00:45.000Z,551
2023-08-22T11:02:01.000Z,551
2023-08-22T11:03:17.000Z,568
2023-08-22T11:04:33.000Z,528
2023-08-22T11:05:49.000Z,506
2023-08-22T11:07:05.000Z,528
2023-08-22T11:08:22.000Z,511
2023-08-22T11:09:38.206Z,511
2023-08-22T11:10:54.000Z,500
2023-08-22T11:12:10.000Z,506
2023-08-22T11:13:26.000Z,495
2023-08-22T11:14:43.000Z,506
2023-08-22T11:15:59.000Z,517
2023-08-22T11:17:15.000Z,511
2023-08-22T11:18:30.000Z,511
2023-08-22T11:19:46.000Z,500
2023-08-22T11:21:03.000Z,489
2023-08-22T11:22:19.000Z,506
2023-08-22T11:23:35.000Z,528
2023-08-22T11:24:51.000Z,506
2023-08-22T11:26:07.000Z,489
2023-08-22T11:27:24.000Z,478
2023-08-22T11:28:40.000Z,466
2023-08-22T11:29:56.000Z,466
2023-08-22T11:31:12.000Z,461
2023-08-22T11:32:28.000Z,450
2023-08-22T11:33:44.000Z,461
2023-08-22T11:35:00.000Z,455
2023-08-22T11:36:16.000Z,461
2023-08-22T11:37:32.000Z,506
2023-08-22T11:38:48.000Z,511
2023-08-22T11:40:04.000Z,528
2023-08-22T11:41:21.000Z,528
2023-08-22T11:42:36.000Z,472
2023-08-22T11:43:52.000Z,483
2023-08-22T11:45:08.000Z,416
2023-08-22T11:46:24.000Z,455
2023-08-22T11:47:41.000Z,421
2023-08-22T11:48:57.000Z,382
2023-08-22T11:50:13.000Z,354
2023-08-22T11:51:29.000Z,365
2023-08-22T11:52:45.000Z,388
2023-08-22T11:54:02.000Z,405
2023-08-22T11:55:18.000Z,405
2023-08-22T11:56:34.000Z,388
2023-08-22T11:57:50.000Z,393
2023-08-22T11:59:05.000Z,410
2023-08-22T12:00:22.000Z,416
2023-08-22T12:01:38.000Z,416
2023-08-22T12:02:54.000Z,421
2023-08-22T12:04:10.000Z,444
2023-08-22T12:05:26.000Z,506
2023-08-22T12:06:43.098Z,523
2023-08-22T12:07:59.000Z,534
2023-08-22T12:09:15.000Z,511
2023-08-22T12:10:31.000Z,500
2023-08-22T12:11:47.000Z,506
2023-08-22T12:13:04.000Z,489
2023-08-22T12:14:20.000Z,500
2023-08-22T12:15:35.000Z,466
2023-08-22T12:16:51.000Z,450
2023-08-22T12:18:07.000Z,461
2023-08-22T12:19:24.000Z,461
2023-08-22T12:20:40.000Z,427
2023-08-22T12:21:56.000Z,382
2023-08-22T12:23:12.000Z,365
2023-08-22T12:24:28.000Z,376
2023-08-22T12:25:45.000Z,376
2023-08-22T12:27:01.000Z,376
2023-08-22T12:28:17.000Z,376
2023-08-22T12:29:33.000Z,365
2023-08-22T12:30:49.000Z,354
2023-08-22T12:32:05.000Z,343
2023-08-22T12:33:21.000Z,343
2023-08-22T12:34:37.000Z,331
2023-08-22T12:35:53.000Z,320
2023-08-22T12:37:09.000Z,326
2023-08-22T12:38:26.000Z,337
2023-08-22T12:39:42.000Z,343
2023-08-22T12:40:58.000Z,348
2023-08-22T12:42:14.000Z,348
2023-08-22T12:43:30.000Z,348
2023-08-22T12:44:47.000Z,343
2023-08-22T12:46:03.000Z,348
2023-08-22T12:47:19.000Z,348
2023-08-22T12:48:34.000Z,337
2023-08-22T12:49:50.000Z,331
2023-08-22T12:51:07.000Z,320
2023-08-22T12:52:23.000Z,315
2023-08-22T12:53:39.000Z,315
2023-08-22T12:54:55.594Z,315
2023-08-22T12:56:11.000Z,315
2023-08-22T12:57:28.000Z,320
2023-08-22T12:58:44.000Z,320
2023-08-22T13:00:00.000Z,320
2023-08-22T13:01:16.000Z,315
2023-08-22T13:02:32.000Z,315
2023-08-22T13:03:49.000Z,315
2023-08-22T13:05:04.000Z,320
2023-08-22T13:06:20.000Z,315
2023-08-22T13:07:36.000Z,326
2023-08-22T13:08:52.000Z,326
2023-08-22T13:10:08.000Z,331
2023-08-22T13:11:25.000Z,337
2023-08-22T13:12:41.000Z,348
2023-08-22T13:13:57.000Z,354
2023-08-22T13:15:13.000Z,348
2023-08-22T13:16:29.000Z,343
2023-08-22T13:17:46.000Z,343
2023-08-22T13:19:02.000Z,337
2023-08-22T13:20:18.000Z,331
2023-08-22T13:21:33.000Z,331
2023-08-22T13:22:49.000Z,331
2023-08-22T13:24:06.000Z,337
2023-08-22T13:25:22.000Z,331
2023-08-22T13:26:38.000Z,326
2023-08-22T13:27:54.000Z,309
2023-08-22T13:29:10.000Z,298
2023-08-22T13:30:27.000Z,286
2023-08-22T13:31:43.000Z,270
2023-08-22T13:32:59.466Z,241
2023-08-22T13:34:15.000Z,219
2023-08-22T13:35:31.000Z,202
2023-08-22T13:36:48.000Z,202
2023-08-22T13:38:03.000Z,213
2023-08-22T13:39:19.000Z,236
2023-08-22T13:40:35.000Z,241
2023-08-22T13:41:51.000Z,253
2023-08-22T13:43:08.011Z,258
2023-08-22T13:44:24.000Z,264
2023-08-22T13:45:40.000Z,264
2023-08-22T13:46:56.000Z,264
2023-08-22T13:48:12.000Z,258
2023-08-22T13:49:29.000Z,253
2023-08-22T13:50:45.000Z,247
2023-08-22T13:52:01.000Z,247
2023-08-22T13:53:17.000Z,236
2023-08-22T13:54:32.000Z,225
2023-08-22T13:55:49.000Z,219
2023-08-22T13:57:05.000Z,230
2023-08-22T13:58:21.000Z,247
2023-08-22T13:59:37.000Z,258
2023-08-22T14:00:53.000Z,270
2023-08-22T14:02:09.000Z,270
2023-08-22T14:03:26.000Z,275
2023-08-22T14:04:42.000Z,275
2023-08-22T14:05:58.000Z,270
2023-08-22T14:07:14.000Z,286
2023-08-22T14:08:30.000Z,253
2023-08-22T14:09:47.000Z,247
2023-08-22T14:11:02.320Z,258
2023-08-22T14:12:18.000Z,343
2023-08-22T14:13:34.000Z,303
2023-08-22T14:14:50.000Z,365
2023-08-22T14:16:07.000Z,382
2023-08-22T14:17:23.000Z,416
2023-08-22T14:18:39.000Z,376
2023-08-22T14:19:55.000Z,337
2023-08-22T14:21:11.858Z,303
2023-08-22T14:22:28.000Z,292
2023-08-22T14:23:44.000Z,270
2023-08-22T14:25:00.000Z,241
2023-08-22T14:26:16.000Z,230
2023-08-22T14:27:31.000Z,230
2023-08-22T14:28:48.000Z,225
2023-08-22T14:30:04.000Z,225
2023-08-22T14:31:20.000Z,219
2023-08-22T14:32:36.613Z,230
2023-08-22T14:33:52.000Z,230
2023-08-22T14:35:09.000Z,225
2023-08-22T14:36:25.000Z,213
2023-08-22T14:37:41.000Z,213
2023-08-22T14:38:57.000Z,213
2023-08-22T14:40:13.000Z,208
2023-08-22T14:41:30.000Z,213
2023-08-22T14:42:46.000Z,213
2023-08-22T14:44:01.000Z,219
2023-08-22T14:45:17.000Z,219
2023-08-22T14:46:33.000Z,236
2023-08-22T14:47:50.000Z,303
2023-08-22T14:49:06.000Z,281
2023-08-22T14:50:22.000Z,281
2023-08-22T14:51:38.000Z,270
2023-08-22T14:52:54.000Z,326
2023-08-22T14:54:10.000Z,303
2023-08-22T14:55:27.000Z,298
2023-08-22T14:56:43.000Z,247
2023-08-22T14:57:59.000Z,225
2023-08-22T14:59:15.000Z,286
2023-08-22T15:00:30.000Z,196
2023-08-22T15:01:47.107Z,180
2023-08-22T15:03:03.000Z,163
2023-08-22T15:04:19.000Z,157
2023-08-22T15:05:35.000Z,151
2023-08-22T15:06:51.000Z,151
2023-08-22T15:08:08.000Z,151
2023-08-22T15:09:24.000Z,163
2023-08-22T15:10:40.000Z,202
2023-08-22T15:11:56.000Z,236
2023-08-22T15:13:12.000Z,236
2023-08-22T15:14:29.000Z,303
2023-08-22T15:15:45.000Z,348
2023-08-22T15:17:00.000Z,382
2023-08-22T15:18:16.000Z,388
2023-08-22T15:19:32.000Z,393
2023-08-22T15:20:49.000Z,360
2023-08-22T15:22:05.000Z,292
2023-08-22T15:23:21.000Z,326
2023-08-22T15:24:37.000Z,309
2023-08-22T15:25:53.000Z,292
2023-08-22T15:27:10.000Z,281
2023-08-22T15:28:26.000Z,275
2023-08-22T15:29:42.000Z,264
2023-08-22T15:30:58.000Z,270
2023-08-22T15:32:14.000Z,202
2023-08-22T15:33:30.000Z,191
2023-08-22T15:34:46.000Z,202
2023-08-22T15:36:02.000Z,247
2023-08-22T15:37:18.000Z,247
2023-08-22T15:38:34.000Z,270
2023-08-22T15:39:50.000Z,208
2023-08-22T15:41:07.000Z,202
2023-08-22T15:42:23.000Z,180
2023-08-22T15:43:39.000Z,225
2023-08-22T15:44:55.000Z,247
2023-08-22T15:46:11.905Z,247
2023-08-22T15:47:28.000Z,219
2023-08-22T15:48:44.000Z,208
2023-08-22T15:49:59.000Z,247
2023-08-22T15:51:15.000Z,174
2023-08-22T15:52:31.000Z,174
2023-08-22T15:53:48.075Z,163
2023-08-22T15:55:04.000Z,163
2023-08-22T15:56:20.000Z,168
2023-08-22T15:57:35.000Z,185
2023-08-22T15:58:51.000Z,213
2023-08-22T16:00:08.000Z,219
2023-08-22T16:01:24.000Z,247
2023-08-22T16:02:40.000Z,191
2023-08-22T16:03:56.000Z,168
2023-08-22T16:05:12.000Z,163
2023-08-22T16:06:29.000Z,157
2023-08-22T16:07:45.000Z,157
2023-08-22T16:09:01.000Z,151
2023-08-22T16:10:17.000Z,151
2023-08-22T16:11:33.000Z,157
2023-08-22T16:12:50.000Z,157
2023-08-22T16:14:05.000Z,157
2023-08-22T16:15:21.000Z,157
2023-08-22T16:16:37.000Z,157
2023-08-22T16:17:53.000Z,157
2023-08-22T16:19:10.000Z,157
2023-08-22T16:20:26.000Z,157
2023-08-22T16:21:42.000Z,157
2023-08-22T16:22:58.000Z,157
2023-08-22T16:24:14.000Z,163
2023-08-22T16:25:31.000Z,163
2023-08-22T16:26:47.000Z,163
2023-08-22T16:28:03.000Z,168
2023-08-22T16:29:19.000Z,225
2023-08-22T16:30:34.731Z,174
2023-08-22T16:31:50.000Z,163
2023-08-22T16:33:07.000Z,180
2023-08-22T16:34:23.000Z,225
2023-08-22T16:35:39.000Z,253
2023-08-22T16:36:55.000Z,247
2023-08-22T16:38:11.000Z,241
2023-08-22T16:39:28.000Z,241
2023-08-22T16:40:44.000Z,241
2023-08-22T16:42:00.000Z,236
2023-08-22T16:43:16.000Z,196
2023-08-22T16:44:32.000Z,191
2023-08-22T16:45:49.000Z,225
2023-08-22T16:47:04.000Z,219
2023-08-22T16:48:20.000Z,163
2023-08-22T16:49:36.000Z,146
2023-08-22T16:50:52.000Z,146
2023-08-22T16:52:09.000Z,146
2023-08-22T16:53:25.000Z,146
2023-08-22T16:54:41.000Z,151
2023-08-22T16:55:57.000Z,151
2023-08-22T16:57:13.000Z,196
2023-08-22T16:58:30.000Z,163
2023-08-22T16:59:46.000Z,140
2023-08-22T17:01:02.000Z,129
2023-08-22T17:02:18.000Z,123
2023-08-22T17:03:33.000Z,123
2023-08-22T17:04:50.000Z,112
2023-08-22T17:06:06.000Z,112
2023-08-22T17:07:22.000Z,106
2023-08-22T17:08:38.584Z,106
2023-08-22T17:09:54.000Z,101
2023-08-22T17:11:11.000Z,101
2023-08-22T17:12:27.000Z,101
2023-08-22T17:13:43.000Z,95
2023-08-22T17:14:59.000Z,95
2023-08-22T17:16:15.000Z,90
2023-08-22T17:17:31.000Z,90
2023-08-22T17:18:48.000Z,90
2023-08-22T17:20:03.000Z,84
2023-08-22T17:21:19.519Z,84
2023-08-22T17:22:35.000Z,84
2023-08-22T17:23:51.000Z,84
2023-08-22T17:25:08.000Z,78
2023-08-22T17:26:24.000Z,78
2023-08-22T17:27:40.000Z,78
2023-08-22T17:28:56.000Z,73
2023-08-22T17:30:12.000Z,73
2023-08-22T17:31:29.000Z,73
2023-08-22T17:32:45.000Z,67
2023-08-22T17:34:01.000Z,67
2023-08-22T17:35:17.000Z,61
2023-08-22T17:36:32.000Z,61
2023-08-22T17:37:49.000Z,61
2023-08-22T17:39:05.000Z,56
2023-08-22T17:40:21.000Z,56
2023-08-22T17:41:37.000Z,56
2023-08-22T17:42:53.000Z,56
2023-08-22T17:44:10.000Z,56
2023-08-22T17:45:26.000Z,56
2023-08-22T17:46:42.407Z,56